• Join FlightAware (Why Join?)
  • Login
  • US Flag 
07:10AM EST


 

Airport Tracker/Info


-or-


 

Live Flight TrackerFlight Track Log ✈ N338TK ✈ 10-Jul-2013 ✈ 39N - KVLL

Flight Track Log - Related Links

Times and Time Zones

All times are in EDT time to prevent confusion due to time zone crossing. See the N338TK flight status page for this flight to view local times or setup timezone preferences in your user account.

Time Position Orientation Groundspeed Altitude Reporting Facility
EDT Latitude Longitude Course Direction KTS MPH feet Rate Location/Type
06:00PM 40.4500 -74.7000 288° West 133 153 1,900  Level New York TRACON
06:01PM 40.4833 -74.7167 339° North 159 183 2,700 420 Climbing New York TRACON
06:03PM 40.5365 -74.7167 North  Level FlightAware Approximate
06:06PM 40.5984 -74.8268 288° West  Level FlightAware Approximate
06:10PM 40.6416 -75.0911 285° West  Level FlightAware Approximate
06:11PM 40.6534 -75.1491 286° West  Level FlightAware Approximate
06:11PM 40.5969 -75.1550 285° West 149 171 6,500  Level New York Center
06:12PM 40.6656 -75.2070 286° West  Level FlightAware Approximate
06:12PM 40.6053 -75.2103 281° West 149 171 7,000  Level New York Center
06:13PM 40.6778 -75.2649 286° West  Level FlightAware Approximate
06:13PM 40.6094 -75.2625 276° West 144 166 7,500  Level New York Center
06:14PM 40.6900 -75.3229 286° West  Level FlightAware Approximate
06:14PM 40.6139 -75.3119 277° West 144 166 8,000  Level New York Center
06:15PM 40.7022 -75.3808 285° West  Level FlightAware Approximate
06:15PM 40.6203 -75.3617 280° West 144 166 8,500  Level New York Center
06:16PM 40.6269 -75.4058 281° West 144 166 9,000 480 Climbing New York Center
06:17PM 40.6333 -75.4553 280° West 144 166 9,500 420 Climbing New York Center
06:18PM 40.6375 -75.5022 277° West 139 160 9,900 180 Climbing New York Center
06:19PM 40.6458 -75.5603 281° West 152 175 9,900  Level New York Center
06:20PM 40.6533 -75.6292 278° West 173 199 9,900  Level New York Center
06:21PM 40.6594 -75.6842 278° West 173 199 9,900  Level New York Center
06:22PM 40.6689 -75.7561 280° West 178 205 9,900  Level New York Center
06:23PM 40.6744 -75.8222 276° West 178 205 9,900  Level New York Center
06:24PM 40.6819 -75.8883 279° West 178 205 9,900  Level New York Center
06:25PM 40.6897 -75.9464 280° West 178 205 9,900  Level New York Center
06:26PM 40.7119 -76.0111 294° West 178 205 9,900  Level New York Center
06:27PM 40.7344 -76.0678 298° West 178 205 9,900  Level New York Center
06:28PM 40.7594 -76.1161 304° West 183 211 9,900  Level New York Center
06:29PM 40.7858 -76.1758 300° West 183 211 9,900  Level New York Center
06:30PM 40.8103 -76.2353 299° West 183 211 9,900  Level New York Center
06:31PM 40.8328 -76.2892 299° West 183 211 9,900  Level New York Center
06:32PM 40.8553 -76.3406 300° West 183 211 9,900  Level New York Center
06:33PM 40.8775 -76.4000 296° West 178 205 9,900  Level New York Center
06:34PM 40.9036 -76.4625 299° West 178 205 9,900  Level New York Center
06:35PM 40.9281 -76.5194 300° West 178 205 9,900  Level New York Center
06:36PM 40.9503 -76.5764 297° West 178 205 9,900  Level New York Center
06:37PM 40.9728 -76.6278 300° West 178 205 9,900  Level New York Center
06:38PM 40.9969 -76.6875 298° West 183 211 9,900  Level New York Center
06:39PM 41.0189 -76.7472 296° West 183 211 9,900  Level New York Center
06:40PM 41.0433 -76.8017 301° West 183 211 9,900  Level New York Center
06:41PM 41.0672 -76.8617 298° West 183 211 9,900  Level New York Center
06:42PM 41.0892 -76.9186 297° West 183 211 9,900  Level New York Center
06:43PM 41.1133 -76.9786 298° West 183 211 9,900  Level New York Center
06:44PM 41.1394 -77.0361 301° West 183 211 9,900  Level New York Center
06:45PM 41.1611 -77.0961 296° West 183 211 9,900  Level New York Center
06:46PM 41.1853 -77.1533 299° West 183 211 9,900  Level New York Center
06:47PM 41.2094 -77.2081 300° West 183 211 9,900  Level New York Center
06:48PM 41.2333 -77.2656 299° West 183 211 9,900  Level New York Center
06:49PM 41.2553 -77.3231 297° West 183 211 9,900  Level New York Center
06:50PM 41.2847 -77.3894 301° West 183 211 9,900  Level New York Center
06:51PM 41.3067 -77.4467 297° West 183 211 9,900  Level New York Center
06:52PM 41.3306 -77.5017 300° West 183 211 9,900  Level New York Center
06:53PM 41.3708 -77.6003 299° West 182 209 10,000  Climbing Cleveland Center
06:54PM 41.3931 -77.6572 297° West 177 204 10,000  Level Cleveland Center
06:55PM 41.4153 -77.7117 299° West 177 204 10,000 -60 Level Cleveland Center
06:56PM 41.4397 -77.7689 300° West 177 204 9,900 -60 Descending Cleveland Center
06:57PM 41.4619 -77.8261 297° West 177 204 9,900  Level Cleveland Center
06:58PM 41.4842 -77.8806 299° West 177 204 9,900  Level Cleveland Center
06:59PM 41.5144 -77.9319 308° West 177 204 9,900  Level Cleveland Center
07:00PM 41.5531 -77.9747 320° Northwest 177 204 9,900  Level Cleveland Center
07:01PM 41.5811 -78.0208 309° West 184 212 9,900  Level Cleveland Center
07:02PM 41.6011 -78.0783 295° West 179 206 9,900  Level Cleveland Center
07:03PM 41.6214 -78.1414 293° West 179 206 9,900  Level Cleveland Center
07:04PM 41.6372 -78.2047 289° West 179 206 9,900  Level Cleveland Center
07:05PM 41.6450 -78.2711 279° West 179 206 9,900  Level Cleveland Center
07:06PM 41.6525 -78.3378 279° West 179 206 9,900  Level Cleveland Center
07:07PM 41.6619 -78.4042 281° West 179 206 9,900  Level Cleveland Center
07:08PM 41.6653 -78.4678 274° West 179 206 9,900  Level Cleveland Center
07:09PM 41.6747 -78.5314 281° West 179 206 9,900  Level Cleveland Center
07:10PM 41.6883 -78.5922 287° West 179 206 9,900  Level Cleveland Center
07:11PM 41.7019 -78.6503 287° West 174 200 9,900  Level Cleveland Center
07:12PM 41.7133 -78.7111 284° West 174 200 9,900  Level Cleveland Center
07:13PM 41.7247 -78.7719 284° West 174 200 9,900  Level Cleveland Center
07:14PM 41.7406 -78.8411 287° West 169 194 9,900  Level Cleveland Center
07:15PM 41.7539 -78.9019 286° West 169 194 9,900  Level Cleveland Center
07:16PM 41.7694 -78.9656 288° West 175 201 9,900  Level Cleveland Center
07:17PM 41.7783 -79.0183 283° West 175 201 9,900  Level Cleveland Center
07:18PM 41.7897 -79.0792 284° West 168 193 9,900  Level Cleveland Center
07:19PM 41.8050 -79.1431 288° West 161 185 9,900  Level Cleveland Center
07:20PM 41.8161 -79.1958 286° West 161 185 10,000  Climbing Cleveland Center
07:21PM 41.8272 -79.2622 283° West 169 194 9,900 -300 Descending Cleveland Center
07:22PM 41.8383 -79.3206 284° West 177 204 9,500 -360 Descending Cleveland Center
07:23PM 41.8517 -79.3817 286° West 177 204 9,200 -420 Descending Cleveland Center
07:24PM 41.8628 -79.4483 283° West 177 204 8,700 -600 Descending Cleveland Center
07:25PM 41.8778 -79.5122 288° West 182 209 8,100 -600 Descending Cleveland Center
07:26PM 41.8889 -79.5761 283° West 182 209 7,600 -120 Descending Cleveland Center
07:28PM 41.9051 -79.6484 287° West  Level FlightAware Approximate
07:35PM 41.9972 -80.0718 285° West  Level FlightAware Approximate
07:36PM 42.0089 -80.1329 284° West  Level FlightAware Approximate
07:37PM 42.0205 -80.1940 284° West  Level FlightAware Approximate
07:38PM 42.0322 -80.2551 284° West  Level FlightAware Approximate
07:39PM 42.0438 -80.3162 284° West  Level FlightAware Approximate
07:40PM 42.0554 -80.3774 284° West  Level FlightAware Approximate
07:41PM 42.0669 -80.4385 284° West  Level FlightAware Approximate
07:42PM 42.0784 -80.4997 284° West  Level FlightAware Approximate
07:43PM 42.0899 -80.5610 284° West  Level FlightAware Approximate
07:44PM 42.1013 -80.6222 284° West  Level FlightAware Approximate
07:45PM 42.1128 -80.6834 284° West  Level FlightAware Approximate
07:45PM 42.1100 -80.7203 284° West 171 197 6,000  Level Cleveland Center
07:46PM 42.1241 -80.7447 284° West  Level FlightAware Approximate
07:46PM 42.1203 -80.7819 283° West 171 197 6,000  Level Cleveland Center
07:47PM 42.1355 -80.8060 284° West  Level FlightAware Approximate
07:47PM 42.1328 -80.8464 285° West 133 153 6,000  Level Cleveland Center
07:48PM 42.1468 -80.8674 284° West  Level FlightAware Approximate
07:48PM 42.1428 -80.9136 281° West 138 159 6,000  Level Cleveland Center
07:49PM 42.1581 -80.9287 284° West  Level FlightAware Approximate
07:49PM 42.1572 -80.9753 288° West 166 191 5,900  Level Cleveland Center
07:50PM 42.1675 -81.0369 283° West 171 197 6,000  Climbing Cleveland Center
07:51PM 42.1797 -81.1014 284° West 176 203 6,000  Level Cleveland Center
07:52PM 42.1897 -81.1661 282° West 176 203 6,000  Level Cleveland Center
07:53PM 42.2019 -81.2278 285° West 181 208 6,000  Level Cleveland Center
07:54PM 42.2119 -81.2925 282° West 181 208 6,000 -60 Level Cleveland Center
07:55PM 42.2242 -81.3542 285° West 181 208 5,900  Descending Cleveland Center
07:56PM 42.2361 -81.4189 284° West 181 208 6,000  Climbing Cleveland Center
07:57PM 42.2461 -81.4781 283° West 174 200 6,000  Level Cleveland Center
07:58PM 42.2583 -81.5397 285° West 174 200 6,000  Level Cleveland Center
07:59PM 42.2703 -81.6044 284° West 174 200 6,000  Level Cleveland Center
08:00PM 42.2800 -81.6664 282° West 174 200 6,100  Climbing Cleveland Center
08:01PM 42.2919 -81.7283 285° West 174 200 6,100  Level Cleveland Center
08:02PM 42.3017 -81.7875 283° West 174 200 6,100 -60 Level Cleveland Center
08:03PM 42.3136 -81.8522 284° West 179 206 6,000 -360 Descending Cleveland Center
08:04PM 42.3253 -81.9200 283° West 187 215 5,400 -600 Descending Cleveland Center
08:05PM 42.3389 -81.9906 285° West 192 221 4,900 -540 Descending Cleveland Center
08:06PM 42.3506 -82.0608 283° West 197 227 4,400 -540 Descending Cleveland Center
08:06PM 42.3644 -82.1175 288° West 198 228 4,000 -300 Descending Cleveland Center
08:07PM 42.3719 -82.1767 280° West 192 221 4,000  Level Cleveland Center
08:08PM 42.3836 -82.2444 283° West 183 211 4,000  Level Cleveland Center
08:09PM 42.3950 -82.3122 283° West 189 217 4,000  Level Cleveland Center
08:10PM 42.4067 -82.3744 284° West 182 209 4,000  Level Cleveland Center
08:11PM 42.4200 -82.4453 284° West 169 194 4,000  Level Cleveland Center
08:12PM 42.4275 -82.5100 279° West 170 196 4,000  Level Cleveland Center
08:13PM 42.4389 -82.5722 284° West 170 196 4,000  Level Cleveland Center
08:15PM 42.4522 -82.6458 284° West 173 199 4,000  Level Cleveland Center
08:16PM 42.4633 -82.7108 283° West 175 201 4,000 -60 Level Cleveland Center
08:17PM 42.4725 -82.7817 280° West 176 203 3,900 -360 Descending Cleveland Center
08:18PM 42.4858 -82.8497 285° West 186 214 3,300 -600 Descending Cleveland Center
08:20PM 42.4989 -82.9672 287° West  Level FlightAware Approximate
08:27PM 42.5333 -83.1667 270° West  Level FlightAware Approximate